Time;durP1;ratioP1;P1;durP2;ratioP2;P2;SDS_P1;SDS_P2;PMS_P1;PMS_P2;Temp;Humidity;BMP_temperature;BMP_pressure;BME280_temperature;BME280_humidity;BME280_pressure;Samples;Min_cycle;Max_cycle;Signal;HPM_P1;HPM_P2
2023/01/18 00:00:10;;;;;;;;;;;;;;;19.90;38.75;99238.81;105759;1285;60463;-82
2023/01/18 00:02:35;;;;;;;;;;;;;;;19.89;39.06;99244.40;105916;1285;60306;-82
2023/01/18 00:05:01;;;;;;;;;;;;;;;19.88;39.02;99243.58;105765;1285;60571;-82
2023/01/18 00:07:27;;;;;;;;;;;;;;;19.88;38.97;99244.11;105720;1285;60507;-82
2023/01/18 00:09:53;;;;;;;;;;;;;;;19.89;38.79;99244.65;105607;1285;60639;-81
2023/01/18 00:12:18;;;;;;;;;;;;;;;19.88;39.02;99240.73;105698;1285;60456;-82
2023/01/18 00:14:44;;;;;;;;;;;;;;;19.88;38.86;99246.83;105901;1285;60462;-82
2023/01/18 00:17:10;;;;;;;;;;;;;;;19.88;38.90;99251.30;105763;1285;60475;-82
2023/01/18 00:19:37;;;;;;;;;;;;;;;19.88;38.94;99256.49;105712;1285;61314;-81
2023/01/18 00:22:03;;;;;;;;;;;;;;;19.87;38.87;99257.95;105763;1285;73479;-82
2023/01/18 00:24:29;;;;;;;;;;;;;;;19.88;39.01;99263.10;105699;1285;60607;-82
2023/01/18 00:26:54;;;;;;;;;;;;;;;19.88;38.96;99267.56;105730;1285;60424;-82
2023/01/18 00:29:20;;;;;;;;;;;;;;;19.87;38.93;99271.94;105739;1285;60548;-82
2023/01/18 00:31:45;;;;;;;;;;;;;;;19.87;38.87;99276.20;105740;1285;60448;-82
2023/01/18 00:34:11;;;;;;;;;;;;;;;19.87;38.87;99275.33;105721;1285;73494;-82
2023/01/18 00:36:37;;;;;;;;;;;;;;;19.87;38.94;99276.40;105721;1285;59352;-82
2023/01/18 00:39:03;;;;;;;;;;;;;;;19.86;38.86;99278.05;105755;1285;61213;-82
2023/01/18 00:41:29;;;;;;;;;;;;;;;19.87;38.93;99277.33;105795;1285;60452;-82
2023/01/18 00:43:54;;;;;;;;;;;;;;;19.86;38.78;99275.53;105745;1285;60475;-82
2023/01/18 00:46:21;;;;;;;;;;;;;;;19.86;38.92;99269.31;105780;1285;60493;-82
2023/01/18 00:48:47;;;;;;;;;;;;;;;19.86;38.99;99266.66;105721;1285;73951;-82
2023/01/18 00:51:13;;;;;;;;;;;;;;;19.86;38.86;99263.59;105789;1285;60453;-82
2023/01/18 00:53:39;;;;;;;;;;;;;;;19.86;38.89;99259.88;105672;1285;60985;-82
2023/01/18 00:56:08;;;;;;;;;;;;;;;19.86;38.67;99255.80;105782;1285;60445;-82
2023/01/18 00:58:34;;;;;;;;;;;;;;;19.86;38.88;99257.41;105939;1285;73781;-82
2023/01/18 01:00:59;;;;;;;;;;;;;;;19.86;38.95;99259.39;105702;1285;60497;-82
2023/01/18 01:03:25;;;;;;;;;;;;;;;19.86;38.99;99256.55;105743;1285;60496;-82
2023/01/18 01:08:34;;;;;;;;;;;;;;;19.85;38.97;99260.52;105766;1289;74656;-82
2023/01/18 01:11:04;;;;;;;;;;;;;;;19.85;38.77;99260.90;105642;1285;60541;-82
2023/01/18 01:27:12;;;;;;;;;;;;;;;19.84;39.00;99233.67;105389;1285;670801;-82
2023/01/18 01:29:38;;;;;;;;;;;;;;;19.83;38.92;99234.77;105680;1285;60443;-82
2023/01/18 01:32:05;;;;;;;;;;;;;;;19.83;38.97;99234.77;105737;1285;60534;-82
2023/01/18 01:34:30;;;;;;;;;;;;;;;19.83;39.01;99235.02;105939;1285;60476;-83
2023/01/18 01:36:56;;;;;;;;;;;;;;;19.83;38.90;99239.45;105661;1285;60589;-83
2023/01/18 01:39:21;;;;;;;;;;;;;;;19.82;38.77;99235.94;105653;1285;60470;-82
2023/01/18 01:41:47;;;;;;;;;;;;;;;19.83;38.96;99231.28;105767;1285;60462;-82
2023/01/18 01:44:16;;;;;;;;;;;;;;;19.82;38.94;99228.60;105669;1285;59796;-82
2023/01/18 01:47:00;;;;;;;;;;;;;;;19.82;38.88;99228.64;105893;1285;60497;-82
2023/01/18 01:49:28;;;;;;;;;;;;;;;19.82;38.89;99230.05;105906;1285;72560;-82
2023/01/18 01:51:59;;;;;;;;;;;;;;;19.82;38.80;99232.08;105934;1285;73734;-82
2023/01/18 01:54:29;;;;;;;;;;;;;;;19.81;38.99;99232.81;105942;1285;60280;-83
2023/01/18 01:56:55;;;;;;;;;;;;;;;19.81;38.87;99234.28;105718;1285;60464;-82
2023/01/18 01:59:21;;;;;;;;;;;;;;;19.81;38.92;99237.66;105928;1285;73672;-82
2023/01/18 02:01:47;;;;;;;;;;;;;;;19.81;38.93;99235.53;105715;1285;60441;-82
2023/01/18 02:04:12;;;;;;;;;;;;;;;19.81;39.02;99235.34;105740;1285;60468;-82
2023/01/18 02:06:38;;;;;;;;;;;;;;;19.81;38.91;99235.35;105923;1285;62197;-82
2023/01/18 02:09:08;;;;;;;;;;;;;;;19.81;38.88;99228.95;105600;1285;60515;-82
2023/01/18 02:11:34;;;;;;;;;;;;;;;19.80;38.96;99228.24;105689;1285;73640;-82
2023/01/18 02:14:01;;;;;;;;;;;;;;;19.80;38.84;99229.67;105725;1285;60590;-82
2023/01/18 02:16:27;;;;;;;;;;;;;;;19.80;38.91;99227.73;105887;1285;60476;-82
2023/01/18 02:18:59;;;;;;;;;;;;;;;19.80;38.93;99227.75;105895;1285;60459;-82
2023/01/18 02:21:26;;;;;;;;;;;;;;;19.79;38.99;99230.99;105730;1285;73475;-82
2023/01/18 02:23:58;;;;;;;;;;;;;;;19.79;38.93;99229.65;105739;1285;60461;-82
2023/01/18 02:26:36;;;;;;;;;;;;;;;19.79;38.94;99230.66;105712;1285;61301;-82
2023/01/18 02:29:23;;;;;;;;;;;;;;;19.79;38.93;99228.21;105912;1285;73321;-82
2023/01/18 02:31:55;;;;;;;;;;;;;;;19.79;38.95;99231.61;105649;1292;72662;-83
2023/01/18 02:34:29;;;;;;;;;;;;;;;19.79;38.91;99234.83;105943;1285;60371;-82
2023/01/18 02:36:55;;;;;;;;;;;;;;;19.78;38.94;99232.55;105746;1285;60443;-82
2023/01/18 02:39:22;;;;;;;;;;;;;;;19.79;38.88;99228.23;105934;1285;60563;-83
2023/01/18 02:47:22;;;;;;;;;;;;;;;19.77;38.92;99221.36;105955;1285;59998;-82
2023/01/18 02:49:47;;;;;;;;;;;;;;;19.77;38.95;99224.77;105743;1285;60467;-82
2023/01/18 02:52:31;;;;;;;;;;;;;;;19.77;38.93;99230.67;105918;1285;60441;-82
2023/01/18 02:54:57;;;;;;;;;;;;;;;19.76;38.85;99226.41;105937;1285;60365;-82
2023/01/18 02:57:23;;;;;;;;;;;;;;;19.77;38.71;99227.63;105691;1285;60464;-82
2023/01/18 02:59:50;;;;;;;;;;;;;;;19.76;38.94;99227.48;105681;1285;60955;-83
2023/01/18 03:02:16;;;;;;;;;;;;;;;19.76;38.89;99224.67;105721;1285;60487;-82
2023/01/18 03:04:43;;;;;;;;;;;;;;;19.76;38.94;99226.11;105937;1285;60459;-82
2023/01/18 03:07:14;;;;;;;;;;;;;;;19.76;39.06;99229.16;105915;1285;60507;-82
2023/01/18 03:09:39;;;;;;;;;;;;;;;19.75;38.86;99230.11;105745;1285;72281;-82
2023/01/18 03:12:11;;;;;;;;;;;;;;;19.75;38.73;99230.27;105893;1285;60476;-82
2023/01/18 03:14:52;;;;;;;;;;;;;;;19.75;38.86;99223.71;105610;1285;61146;-82
2023/01/18 03:17:35;;;;;;;;;;;;;;;19.75;38.89;99219.97;105928;1285;60922;-81
2023/01/18 03:20:08;;;;;;;;;;;;;;;19.74;38.79;99218.23;105720;1285;73978;-81
2023/01/18 03:25:44;;;;;;;;;;;;;;;19.74;38.86;99218.42;105865;1285;60499;-82
2023/01/18 03:33:47;;;;;;;;;;;;;;;19.74;38.83;99228.63;105891;1285;73657;-82
2023/01/18 03:36:23;;;;;;;;;;;;;;;19.74;38.91;99225.08;105732;1285;60353;-83
2023/01/18 03:38:52;;;;;;;;;;;;;;;19.73;38.74;99224.59;105905;1285;61222;-82
2023/01/18 03:41:18;;;;;;;;;;;;;;;19.73;38.69;99227.98;105670;1285;73625;-82
2023/01/18 03:43:43;;;;;;;;;;;;;;;19.73;38.93;99233.88;105708;1285;60491;-82
2023/01/18 03:46:09;;;;;;;;;;;;;;;19.73;38.90;99231.00;105726;1285;60390;-83
2023/01/18 03:48:35;;;;;;;;;;;;;;;19.72;38.73;99230.70;105692;1285;60441;-82
2023/01/18 03:51:02;;;;;;;;;;;;;;;19.72;38.82;99230.36;105884;1285;60329;-82
2023/01/18 03:53:40;;;;;;;;;;;;;;;19.72;38.77;99226.61;105903;1285;73372;-82
2023/01/18 03:56:39;;;;;;;;;;;;;;;19.72;38.80;99221.42;105732;1285;60743;-82
2023/01/18 03:59:04;;;;;;;;;;;;;;;19.72;38.90;99223.63;105413;1292;60938;-82
2023/01/18 04:01:30;;;;;;;;;;;;;;;19.72;38.79;99230.80;105164;1291;60487;-82
2023/01/18 04:03:55;;;;;;;;;;;;;;;19.72;38.82;99233.46;105206;1291;60483;-82
2023/01/18 04:06:22;;;;;;;;;;;;;;;19.72;38.66;99235.23;105201;1291;60648;-82
2023/01/18 04:08:48;;;;;;;;;;;;;;;19.71;38.87;99235.10;105228;1291;60466;-81
2023/01/18 04:11:14;;;;;;;;;;;;;;;19.71;38.89;99235.29;105209;1291;60605;-82
2023/01/18 04:13:39;;;;;;;;;;;;;;;19.71;38.80;99233.85;105239;1291;60519;-81
2023/01/18 04:16:05;;;;;;;;;;;;;;;19.71;38.88;99235.48;105185;1291;73623;-81
2023/01/18 04:18:30;;;;;;;;;;;;;;;19.71;38.85;99236.21;105212;1291;60595;-81
2023/01/18 04:20:56;;;;;;;;;;;;;;;19.70;38.85;99237.85;105226;1291;60463;-81
2023/01/18 04:23:23;;;;;;;;;;;;;;;19.70;38.82;99240.39;105236;1292;60551;-81
2023/01/18 04:25:49;;;;;;;;;;;;;;;19.70;38.86;99245.91;105354;1291;60398;-81
2023/01/18 04:28:15;;;;;;;;;;;;;;;19.70;38.86;99252.00;105328;1291;59374;-81
2023/01/18 04:30:42;;;;;;;;;;;;;;;19.70;38.87;99255.55;105222;1291;60454;-82
2023/01/18 04:33:08;;;;;;;;;;;;;;;19.70;38.75;99256.98;105232;1291;60449;-82
2023/01/18 04:35:35;;;;;;;;;;;;;;;19.70;38.71;99254.00;105710;1285;60424;-82
2023/01/18 04:38:00;;;;;;;;;;;;;;;19.69;38.77;99251.16;105927;1285;60434;-81
2023/01/18 04:40:26;;;;;;;;;;;;;;;19.69;38.67;99255.80;105789;1285;60572;-82
2023/01/18 04:42:52;;;;;;;;;;;;;;;19.69;38.72;99255.10;105745;1285;60452;-82
2023/01/18 04:45:18;;;;;;;;;;;;;;;19.69;38.71;99257.77;105932;1285;60470;-81
2023/01/18 04:47:44;;;;;;;;;;;;;;;19.68;38.90;99258.94;105628;1285;60551;-81
2023/01/18 04:50:10;;;;;;;;;;;;;;;19.69;38.85;99255.52;105738;1285;60595;-82
2023/01/18 04:52:36;;;;;;;;;;;;;;;19.68;38.82;99258.98;105639;1285;60464;-81
2023/01/18 04:55:01;;;;;;;;;;;;;;;19.67;38.72;99275.11;105723;1285;60507;-81
2023/01/18 04:57:27;;;;;;;;;;;;;;;19.66;38.80;99277.33;105723;1285;61081;-81
2023/01/18 04:59:52;;;;;;;;;;;;;;;19.65;38.71;99281.52;105759;1285;60495;-83
2023/01/18 05:02:18;;;;;;;;;;;;;;;19.64;38.60;99274.64;105729;1285;59299;-82
2023/01/18 05:04:43;;;;;;;;;;;;;;;19.63;38.75;99274.61;105650;1285;60585;-82
2023/01/18 05:07:10;;;;;;;;;;;;;;;19.62;38.65;99275.01;105705;1285;60490;-82
2023/01/18 05:09:35;;;;;;;;;;;;;;;19.61;38.62;99272.41;105651;1285;60578;-82
2023/01/18 05:12:01;;;;;;;;;;;;;;;19.60;38.60;99276.05;105723;1285;60452;-83
2023/01/18 05:14:26;;;;;;;;;;;;;;;19.60;38.51;99284.30;105963;1285;60441;-83
2023/01/18 05:16:52;;;;;;;;;;;;;;;19.59;38.65;99291.66;105963;1285;60546;-84
2023/01/18 05:19:17;;;;;;;;;;;;;;;19.59;38.48;99295.45;105741;1285;59224;-84
2023/01/18 05:21:43;;;;;;;;;;;;;;;19.59;38.71;99299.90;105734;1285;60557;-82
2023/01/18 05:24:09;;;;;;;;;;;;;;;19.58;38.54;99303.58;105740;1285;60560;-83
2023/01/18 05:26:35;;;;;;;;;;;;;;;19.56;38.46;99305.19;105940;1285;60474;-83
2023/01/18 05:29:00;;;;;;;;;;;;;;;19.53;38.37;99300.45;105792;1288;60591;-83
2023/01/18 05:31:26;;;;;;;;;;;;;;;19.51;38.53;99301.88;105714;1285;73619;-83
2023/01/18 05:33:52;;;;;;;;;;;;;;;19.49;38.25;99305.06;105720;1285;60574;-83
2023/01/18 05:36:18;;;;;;;;;;;;;;;19.48;38.36;99301.08;105792;1285;60505;-83
2023/01/18 05:38:45;;;;;;;;;;;;;;;19.47;38.43;99300.46;105773;1285;59309;-83
2023/01/18 05:41:10;;;;;;;;;;;;;;;19.47;38.41;99303.14;105805;1286;60407;-83
2023/01/18 05:43:37;;;;;;;;;;;;;;;19.46;38.21;99308.17;105875;1291;60462;-84
2023/01/18 05:46:05;;;;;;;;;;;;;;;19.47;38.16;99310.77;105764;1285;60569;-83
2023/01/18 05:48:30;;;;;;;;;;;;;;;19.48;38.15;99317.28;105836;1285;59203;-83
2023/01/18 05:50:56;;;;;;;;;;;;;;;19.50;38.26;99317.51;105929;1289;60480;-83
2023/01/18 05:53:22;;;;;;;;;;;;;;;19.51;38.09;99314.73;105862;1288;60496;-84
2023/01/18 05:55:54;;;;;;;;;;;;;;;19.53;38.13;99312.60;105942;1285;59118;-83
2023/01/18 05:58:20;;;;;;;;;;;;;;;19.55;38.15;99312.58;105859;1285;60934;-82
2023/01/18 06:00:46;;;;;;;;;;;;;;;19.57;37.96;99318.63;106048;1285;58801;-82
2023/01/18 06:03:12;;;;;;;;;;;;;;;19.60;38.01;99319.46;105745;1288;59155;-81
2023/01/18 06:05:38;;;;;;;;;;;;;;;19.62;37.86;99321.42;105898;1286;59264;-83
2023/01/18 06:08:06;;;;;;;;;;;;;;;19.65;38.09;99320.30;105971;1285;60138;-82
2023/01/18 06:10:32;;;;;;;;;;;;;;;19.67;37.89;99320.25;105964;1285;58235;-83
2023/01/18 06:12:57;;;;;;;;;;;;;;;19.69;37.93;99323.84;105957;1285;60418;-82
2023/01/18 06:15:23;;;;;;;;;;;;;;;19.71;37.90;99325.41;105876;1285;59238;-83
2023/01/18 06:17:48;;;;;;;;;;;;;;;19.74;37.79;99323.42;106147;1285;59529;-82
2023/01/18 06:20:14;;;;;;;;;;;;;;;19.77;37.87;99324.41;106125;1285;58652;-82
2023/01/18 06:22:40;;;;;;;;;;;;;;;19.81;37.96;99329.27;106041;1285;60238;-82
2023/01/18 06:25:09;;;;;;;;;;;;;;;19.86;37.93;99326.31;105959;1289;58788;-82
2023/01/18 06:27:36;;;;;;;;;;;;;;;19.92;37.83;99322.55;106092;1285;74604;-82
2023/01/18 06:30:03;;;;;;;;;;;;;;;19.96;37.71;99326.84;105918;1285;61945;-82
2023/01/18 06:32:29;;;;;;;;;;;;;;;20.00;37.80;99329.70;105889;1285;61479;-82
2023/01/18 06:34:55;;;;;;;;;;;;;;;20.05;37.61;99330.13;105916;1285;59129;-82
2023/01/18 06:37:21;;;;;;;;;;;;;;;20.09;37.44;99328.70;105993;1285;60431;-82
2023/01/18 06:39:46;;;;;;;;;;;;;;;20.13;37.48;99326.73;106062;1285;60620;-82
2023/01/18 06:42:12;;;;;;;;;;;;;;;20.17;37.43;99323.29;105865;1285;59431;-82
2023/01/18 06:44:38;;;;;;;;;;;;;;;20.21;37.51;99327.05;105913;1285;60100;-83
2023/01/18 06:47:03;;;;;;;;;;;;;;;20.25;37.46;99326.71;105826;1288;72502;-83
2023/01/18 06:49:29;;;;;;;;;;;;;;;20.29;37.46;99331.77;106060;1285;59345;-82
2023/01/18 06:51:54;;;;;;;;;;;;;;;20.30;37.34;99337.52;105985;1285;59409;-82
2023/01/18 06:54:20;;;;;;;;;;;;;;;20.31;37.44;99337.85;106001;1285;60848;-82
2023/01/18 06:56:48;;;;;;;;;;;;;;;20.29;37.43;99341.05;106108;1285;60471;-81
2023/01/18 06:59:14;;;;;;;;;;;;;;;20.29;37.50;99343.95;105927;1285;72554;-82
2023/01/18 07:01:39;;;;;;;;;;;;;;;20.26;37.56;99347.33;106008;1285;60275;-84
2023/01/18 07:04:05;;;;;;;;;;;;;;;20.24;37.83;99350.23;105903;1285;59304;-82
2023/01/18 07:06:31;;;;;;;;;;;;;;;20.22;37.82;99351.66;106027;1285;60407;-83
2023/01/18 07:08:56;;;;;;;;;;;;;;;20.21;37.81;99350.52;105812;1285;58743;-82
2023/01/18 07:11:22;;;;;;;;;;;;;;;20.20;37.75;99351.27;106095;1285;59071;-82
2023/01/18 07:13:48;;;;;;;;;;;;;;;20.20;37.75;99357.73;105817;1285;74672;-82
2023/01/18 07:16:17;;;;;;;;;;;;;;;20.21;37.64;99355.70;105904;1285;59848;-82
2023/01/18 07:18:44;;;;;;;;;;;;;;;20.22;37.58;99354.88;105936;1285;60421;-82
2023/01/18 07:21:10;;;;;;;;;;;;;;;20.22;37.50;99349.48;106455;1285;73144;-82
2023/01/18 07:23:36;;;;;;;;;;;;;;;20.23;37.52;99354.75;106586;1285;58407;-83
2023/01/18 07:26:07;;;;;;;;;;;;;;;20.23;37.60;99352.48;106135;1285;59042;-82
2023/01/18 07:28:32;;;;;;;;;;;;;;;20.23;37.68;99346.87;105934;1286;62135;-82
2023/01/18 07:30:58;;;;;;;;;;;;;;;20.23;37.52;99345.14;105822;1285;59023;-83
2023/01/18 07:33:24;;;;;;;;;;;;;;;20.23;37.44;99349.08;105957;1285;60263;-83
2023/01/18 07:35:52;;;;;;;;;;;;;;;20.23;37.55;99345.51;105965;1285;58816;-83
2023/01/18 07:38:18;;;;;;;;;;;;;;;20.22;37.54;99339.50;106027;1285;58709;-82
2023/01/18 07:40:46;;;;;;;;;;;;;;;20.23;37.49;99333.94;105921;1285;59645;-82
2023/01/18 07:43:16;;;;;;;;;;;;;;;20.21;37.42;99335.27;106064;1285;73785;-82
2023/01/18 07:45:42;;;;;;;;;;;;;;;20.20;37.53;99337.52;106039;1285;60433;-82
2023/01/18 07:48:08;;;;;;;;;;;;;;;20.18;37.58;99336.86;105859;1285;59242;-82
2023/01/18 07:50:34;;;;;;;;;;;;;;;20.16;37.59;99336.13;105812;1289;59473;-82
2023/01/18 07:53:05;;;;;;;;;;;;;;;20.15;37.56;99334.98;105811;1285;59114;-83
2023/01/18 07:55:31;;;;;;;;;;;;;;;20.06;37.62;99336.25;106112;1286;60086;-83
2023/01/18 07:58:02;;;;;;;;;;;;;;;19.94;37.65;99336.70;105957;1285;60497;-82
2023/01/18 08:00:27;;;;;;;;;;;;;;;19.81;37.89;99336.86;105857;1287;73290;-82
2023/01/18 08:02:53;;;;;;;;;;;;;;;19.66;38.20;99336.45;105763;1285;59718;-82
2023/01/18 08:05:22;;;;;;;;;;;;;;;19.60;38.48;99340.85;105756;1291;61241;-82
2023/01/18 08:07:57;;;;;;;;;;;;;;;19.59;38.54;99340.38;105960;1285;60190;-83
2023/01/18 08:10:25;;;;;;;;;;;;;;;19.51;38.62;99336.51;106020;1285;73535;-82
2023/01/18 08:12:50;;;;;;;;;;;;;;;19.44;38.76;99335.52;105829;1285;73412;-84
2023/01/18 08:15:16;;;;;;;;;;;;;;;19.41;38.91;99338.55;105797;1287;59287;-80
2023/01/18 08:17:42;;;;;;;;;;;;;;;19.43;38.99;99337.20;105914;1286;59202;-82
2023/01/18 08:20:08;;;;;;;;;;;;;;;19.48;38.96;99338.36;106095;1289;59192;-84
2023/01/18 08:22:34;;;;;;;;;;;;;;;19.54;39.15;99334.64;105911;1285;60592;-81
2023/01/18 08:24:59;;;;;;;;;;;;;;;19.61;38.98;99336.70;105914;1285;59090;-81
2023/01/18 08:27:26;;;;;;;;;;;;;;;19.68;39.09;99337.14;106018;1285;60421;-83
2023/01/18 08:29:51;;;;;;;;;;;;;;;19.75;39.12;99340.79;106016;1285;59928;-83
2023/01/18 08:32:17;;;;;;;;;;;;;;;19.82;39.19;99346.30;105972;1291;58431;-83
2023/01/18 08:34:43;;;;;;;;;;;;;;;19.87;39.30;99351.04;106004;1285;60275;-83
2023/01/18 08:37:10;;;;;;;;;;;;;;;19.91;39.34;99353.10;106021;1285;60565;-83
2023/01/18 08:39:36;;;;;;;;;;;;;;;19.95;39.35;99345.11;106032;1285;59178;-82
2023/01/18 08:42:01;;;;;;;;;;;;;;;19.99;39.30;99339.61;106068;1285;60399;-84
2023/01/18 08:44:27;;;;;;;;;;;;;;;20.01;39.28;99344.92;105930;1285;58859;-84
2023/01/18 08:46:53;;;;;;;;;;;;;;;20.03;39.48;99342.34;105955;1285;74636;-83
2023/01/18 08:49:18;;;;;;;;;;;;;;;20.03;39.47;99344.05;106077;1286;60372;-84
2023/01/18 08:51:44;;;;;;;;;;;;;;;20.02;39.42;99346.25;105904;1285;60441;-83
2023/01/18 08:54:09;;;;;;;;;;;;;;;20.02;39.37;99346.45;105807;1287;60492;-83
2023/01/18 08:56:35;;;;;;;;;;;;;;;20.03;39.39;99343.91;105839;1285;59478;-83
2023/01/18 08:59:01;;;;;;;;;;;;;;;20.02;39.55;99343.40;105795;1286;73528;-84
2023/01/18 09:01:27;;;;;;;;;;;;;;;20.03;39.40;99348.56;105662;1286;59941;-82
2023/01/18 09:03:54;;;;;;;;;;;;;;;19.91;39.42;99345.15;105769;1288;60579;-82
2023/01/18 09:06:21;;;;;;;;;;;;;;;19.74;39.37;99343.35;106564;1285;72755;-82
2023/01/18 09:08:47;;;;;;;;;;;;;;;19.67;39.74;99342.91;106055;1285;59933;-82
2023/01/18 09:11:12;;;;;;;;;;;;;;;19.66;39.65;99340.33;105914;1285;60320;-82
2023/01/18 09:13:40;;;;;;;;;;;;;;;19.66;39.82;99338.77;105772;1286;60333;-82
2023/01/18 09:16:06;;;;;;;;;;;;;;;19.67;39.78;99345.97;105820;1285;59090;-82
2023/01/18 09:18:32;;;;;;;;;;;;;;;19.66;39.82;99350.56;106035;1285;60177;-82
2023/01/18 09:20:58;;;;;;;;;;;;;;;19.68;39.89;99348.08;105890;1285;61129;-82
2023/01/18 09:23:25;;;;;;;;;;;;;;;19.70;39.94;99353.17;105920;1285;59319;-82
2023/01/18 09:26:03;;;;;;;;;;;;;;;19.72;39.89;99359.08;105962;1285;59252;-82
2023/01/18 09:28:30;;;;;;;;;;;;;;;19.75;39.93;99353.30;106027;1285;74904;-82
2023/01/18 09:31:00;;;;;;;;;;;;;;;19.78;39.92;99355.55;105960;1285;60381;-82
2023/01/18 09:33:25;;;;;;;;;;;;;;;19.81;39.91;99352.46;106064;1285;60216;-82
2023/01/18 09:35:51;;;;;;;;;;;;;;;19.83;39.75;99346.54;105909;1285;60386;-82
2023/01/18 09:38:16;;;;;;;;;;;;;;;19.85;39.98;99341.78;105815;1286;60525;-83
2023/01/18 09:40:42;;;;;;;;;;;;;;;19.87;39.79;99342.30;106021;1285;60112;-83
2023/01/18 09:43:26;;;;;;;;;;;;;;;19.89;39.85;99343.54;106624;1285;58677;-83
2023/01/18 09:45:52;;;;;;;;;;;;;;;19.91;40.03;99344.05;106558;1286;73437;-83
2023/01/18 09:48:28;;;;;;;;;;;;;;;19.93;40.07;99346.23;106190;1288;59143;-83
2023/01/18 09:50:53;;;;;;;;;;;;;;;19.91;39.99;99354.00;106092;1286;59949;-83
2023/01/18 09:53:25;;;;;;;;;;;;;;;19.91;40.14;99359.77;106109;1286;60438;-82
2023/01/18 09:55:55;;;;;;;;;;;;;;;19.90;40.23;99364.52;106084;1286;73507;-82
2023/01/18 09:58:36;;;;;;;;;;;;;;;19.89;40.27;99358.31;106037;1286;73740;-82
2023/01/18 10:01:10;;;;;;;;;;;;;;;19.87;40.21;99360.48;105895;1286;59636;-84
2023/01/18 10:03:42;;;;;;;;;;;;;;;19.83;40.40;99357.61;105856;1291;60352;-82
2023/01/18 10:06:14;;;;;;;;;;;;;;;19.79;40.45;99353.52;105999;1286;72331;-83
2023/01/18 10:09:00;;;;;;;;;;;;;;;19.74;40.41;99357.14;106334;1290;72775;-83
2023/01/18 10:11:34;;;;;;;;;;;;;;;19.71;40.50;99353.06;105919;1286;59898;-83
2023/01/18 10:14:18;;;;;;;;;;;;;;;19.66;40.74;99351.95;105890;1285;60318;-83
2023/01/18 10:16:44;;;;;;;;;;;;;;;19.64;40.70;99355.66;105856;1286;72396;-83
2023/01/18 10:19:12;;;;;;;;;;;;;;;19.62;40.66;99362.13;105970;1286;58661;-82
2023/01/18 10:21:47;;;;;;;;;;;;;;;19.60;40.65;99365.11;106308;1289;60960;-83
2023/01/18 10:24:23;;;;;;;;;;;;;;;19.59;40.61;99367.19;106288;1286;60292;-83
2023/01/18 10:26:48;;;;;;;;;;;;;;;19.53;40.52;99366.46;106408;1286;73393;-82
2023/01/18 10:29:23;;;;;;;;;;;;;;;19.48;40.55;99368.87;106477;1286;58589;-83
2023/01/18 10:31:54;;;;;;;;;;;;;;;19.45;40.44;99363.92;106319;1286;60802;-83
2023/01/18 10:34:21;;;;;;;;;;;;;;;19.45;40.47;99362.94;106004;1286;61100;-82
2023/01/18 10:36:48;;;;;;;;;;;;;;;19.42;40.42;99357.91;106041;1286;73413;-82
2023/01/18 10:39:24;;;;;;;;;;;;;;;19.38;40.55;99359.59;105844;1285;74850;-82
2023/01/18 10:41:50;;;;;;;;;;;;;;;19.34;40.44;99360.75;106087;1286;60128;-82
2023/01/18 10:44:15;;;;;;;;;;;;;;;19.33;40.23;99362.14;106119;1289;59077;-82
2023/01/18 10:46:41;;;;;;;;;;;;;;;19.34;40.32;99357.62;105925;1289;60053;-83
2023/01/18 10:49:08;;;;;;;;;;;;;;;19.35;40.43;99354.81;105934;1285;59510;-83
2023/01/18 10:51:35;;;;;;;;;;;;;;;19.35;40.21;99358.70;106008;1285;60502;-82
2023/01/18 10:54:16;;;;;;;;;;;;;;;19.34;40.13;99364.34;105898;1286;60424;-83
2023/01/18 10:56:42;;;;;;;;;;;;;;;19.33;39.99;99368.19;106047;1286;72610;-82
2023/01/18 10:59:09;;;;;;;;;;;;;;;19.32;40.20;99372.02;105825;1286;60349;-83
2023/01/18 11:01:35;;;;;;;;;;;;;;;19.33;40.26;99368.52;105908;1286;59200;-82
2023/01/18 11:04:07;;;;;;;;;;;;;;;19.37;40.30;99374.10;105885;1287;60336;-84
2023/01/18 11:06:49;;;;;;;;;;;;;;;19.38;40.24;99385.95;105975;1286;71804;-83
2023/01/18 11:09:33;;;;;;;;;;;;;;;19.38;40.32;99381.71;105993;1285;73745;-83
2023/01/18 11:12:33;;;;;;;;;;;;;;;19.42;40.56;99382.59;106071;1285;60458;-83
2023/01/18 11:15:13;;;;;;;;;;;;;;;19.47;40.62;99380.56;106081;1288;60656;-82
2023/01/18 11:17:40;;;;;;;;;;;;;;;19.49;40.41;99384.09;106065;1288;72563;-83
2023/01/18 11:20:10;;;;;;;;;;;;;;;19.52;40.38;99384.78;106068;1286;74131;-83
2023/01/18 11:22:36;;;;;;;;;;;;;;;19.54;40.44;99391.36;106351;1285;59775;-83
2023/01/18 11:25:02;;;;;;;;;;;;;;;19.58;40.60;99390.98;105836;1286;59170;-83
2023/01/18 11:27:30;;;;;;;;;;;;;;;19.59;40.53;99383.79;105897;1286;59235;-83
2023/01/18 11:29:56;;;;;;;;;;;;;;;19.63;40.63;99392.23;105857;1285;74642;-83
2023/01/18 11:32:23;;;;;;;;;;;;;;;19.66;40.58;99394.61;105910;1285;60528;-82
2023/01/18 11:34:49;;;;;;;;;;;;;;;19.68;40.58;99401.25;106086;1286;60564;-82
2023/01/18 11:37:24;;;;;;;;;;;;;;;19.69;40.71;99398.06;105825;1286;60365;-83
2023/01/18 11:39:50;;;;;;;;;;;;;;;19.72;40.79;99402.48;106124;1285;73553;-83
2023/01/18 11:42:15;;;;;;;;;;;;;;;19.73;40.84;99394.56;106085;1285;59244;-83
2023/01/18 11:44:47;;;;;;;;;;;;;;;19.73;40.94;99398.80;105977;1285;60593;-82
2023/01/18 11:47:22;;;;;;;;;;;;;;;19.72;40.87;99398.76;106247;1285;72521;-83
2023/01/18 11:49:53;;;;;;;;;;;;;;;19.69;40.85;99396.46;106131;1285;73947;-83
2023/01/18 11:52:28;;;;;;;;;;;;;;;19.67;40.83;99400.07;105887;1285;60462;-81
2023/01/18 11:54:55;;;;;;;;;;;;;;;19.65;41.00;99401.69;106059;1286;59407;-82
2023/01/18 11:57:23;;;;;;;;;;;;;;;19.61;40.94;99404.63;105839;1285;59078;-83
2023/01/18 11:59:49;;;;;;;;;;;;;;;19.59;40.93;99404.27;105841;1286;74623;-83
2023/01/18 12:02:17;;;;;;;;;;;;;;;19.60;41.07;99412.94;105945;1285;59229;-83
2023/01/18 12:05:02;;;;;;;;;;;;;;;19.63;41.08;99406.33;105887;1285;59716;-82
2023/01/18 12:07:32;;;;;;;;;;;;;;;19.64;41.21;99409.60;106134;1285;72689;-82
2023/01/18 12:09:59;;;;;;;;;;;;;;;19.66;41.25;99418.52;106010;1285;73685;-82
2023/01/18 12:12:34;;;;;;;;;;;;;;;19.67;41.06;99416.27;105955;1285;59991;-83
2023/01/18 12:15:04;;;;;;;;;;;;;;;19.69;41.29;99417.20;105743;1287;60180;-83
2023/01/18 12:17:29;;;;;;;;;;;;;;;19.71;41.14;99418.98;105778;1285;72464;-82
2023/01/18 12:19:58;;;;;;;;;;;;;;;19.73;41.05;99423.95;105922;1285;59240;-82
2023/01/18 12:22:36;;;;;;;;;;;;;;;19.74;41.12;99429.39;105974;1285;60507;-83
2023/01/18 12:25:21;;;;;;;;;;;;;;;19.75;41.02;99430.98;105942;1285;60191;-83
2023/01/18 12:28:22;;;;;;;;;;;;;;;19.77;41.18;99430.96;105848;1285;71673;-82
2023/01/18 12:30:56;;;;;;;;;;;;;;;19.80;41.13;99435.20;105193;1292;73938;-82
2023/01/18 12:33:40;;;;;;;;;;;;;;;19.81;41.29;99440.80;105201;1294;60623;-82
2023/01/18 12:36:19;;;;;;;;;;;;;;;19.83;41.17;99444.19;105237;1296;61268;-82
2023/01/18 12:38:50;;;;;;;;;;;;;;;19.85;41.16;99445.65;105233;1292;73283;-82
2023/01/18 12:41:29;;;;;;;;;;;;;;;19.86;41.16;99444.82;105204;1293;73571;-82
2023/01/18 12:44:06;;;;;;;;;;;;;;;19.87;41.36;99454.75;105401;1293;61002;-82
2023/01/18 12:46:52;;;;;;;;;;;;;;;19.87;41.18;99464.37;105318;1294;60433;-82
2023/01/18 12:49:20;;;;;;;;;;;;;;;19.86;41.06;99471.30;104805;1300;72586;-83
2023/01/18 12:51:49;;;;;;;;;;;;;;;19.84;41.05;99477.02;104816;1297;74657;-84
2023/01/18 12:54:17;;;;;;;;;;;;;;;19.83;40.91;99479.36;104765;1300;60850;-83
2023/01/18 12:56:44;;;;;;;;;;;;;;;19.85;41.01;99489.23;104831;1303;59953;-82
2023/01/18 12:59:39;;;;;;;;;;;;;;;19.86;40.93;99488.90;104801;1301;59397;-82
2023/01/18 13:02:25;;;;;;;;;;;;;;;19.87;41.04;99489.77;104434;1308;75518;-83
2023/01/18 13:04:53;;;;;;;;;;;;;;;19.87;41.20;99483.34;104477;1301;60530;-82
2023/01/18 13:07:19;;;;;;;;;;;;;;;19.87;41.12;99483.65;105138;1302;60269;-83
2023/01/18 13:09:45;;;;;;;;;;;;;;;19.88;41.14;99482.36;105188;1303;58586;-83
2023/01/18 13:12:10;;;;;;;;;;;;;;;19.88;40.92;99487.91;105246;1300;58398;-83